Terminal Aerodrome Forecast
Issued by NWS North Platte, NE

Home | Current Version | Previous Version | Text Only | Print | Product List | Glossary Off
Versions: 1 2 3 4 5 6 7 8 9 10 11 12 13 14 15 16

000
FTUS43 KLBF 220520
TAFVTN
TAF
KVTN 220520Z 2206/2306 21004KT P6SM BKN250
     FM221500 21008KT P6SM BKN250
     FM221700 24010KT P6SM BKN250
     FM222000 27011KT P6SM BKN250
     FM230000 30007KT P6SM SCT200=

USA.gov is the U.S. government's official web portal to all federal, state and local government web resources and services.